Time;durP1;ratioP1;P1;durP2;ratioP2;P2;SDS_P1;SDS_P2;PMS_P1;PMS_P2;Temp;Humidity;BMP_temperature;BMP_pressure;BME280_temperature;BME280_humidity;BME280_pressure;Samples;Min_cycle;Max_cycle;Signal;HPM_P1;HPM_P2
2022/05/27 00:00:41;;;;;;;4.40;4.20;;;15.60;99.90;;;;;;5073790;28;20178;-67
2022/05/27 00:03:08;;;;;;;4.87;4.67;;;15.60;99.90;;;;;;5072213;28;20205;-65
2022/05/27 00:05:34;;;;;;;4.90;4.60;;;15.60;99.90;;;;;;5073511;28;20630;-66
2022/05/27 00:08:00;;;;;;;4.70;4.40;;;15.60;99.90;;;;;;5073519;28;20259;-66
2022/05/27 00:10:25;;;;;;;4.77;4.53;;;15.60;99.90;;;;;;5073514;28;20196;-65
2022/05/27 00:12:51;;;;;;;4.30;4.10;;;15.60;99.90;;;;;;5073522;28;20197;-66
2022/05/27 00:15:17;;;;;;;4.53;4.33;;;15.60;99.90;;;;;;5072950;28;20655;-65
2022/05/27 00:17:42;;;;;;;5.03;4.73;;;15.50;99.90;;;;;;5073482;28;20178;-65
2022/05/27 00:20:09;;;;;;;4.80;4.60;;;15.50;99.90;;;;;;5073057;28;20288;-66
2022/05/27 00:22:34;;;;;;;5.27;4.97;;;15.50;99.90;;;;;;5073442;28;20181;-66
2022/05/27 00:25:00;;;;;;;5.00;4.80;;;15.40;99.90;;;;;;5072814;28;20178;-66
2022/05/27 00:27:26;;;;;;;5.63;5.33;;;15.40;99.90;;;;;;5073444;28;20178;-66
2022/05/27 00:29:51;;;;;;;5.80;5.50;;;15.30;99.90;;;;;;5072853;28;20309;-65
2022/05/27 00:32:17;;;;;;;7.13;5.80;;;15.30;99.90;;;;;;5073334;28;20224;-65
2022/05/27 00:34:43;;;;;;;6.17;5.77;;;15.30;99.90;;;;;;5072584;28;20232;-66
2022/05/27 00:37:09;;;;;;;6.27;5.97;;;15.30;99.90;;;;;;5073233;28;20613;-66
2022/05/27 00:39:38;;;;;;;6.27;5.97;;;15.40;99.90;;;;;;5072864;28;20198;-66
2022/05/27 00:42:05;;;;;;;5.97;5.67;;;15.30;99.90;;;;;;5072608;28;20652;-65
2022/05/27 00:44:30;;;;;;;6.20;5.80;;;15.30;99.90;;;;;;5072433;28;20224;-66
2022/05/27 00:47:05;;;;;;;5.80;5.50;;;15.40;99.90;;;;;;5072790;28;20641;-66
2022/05/27 00:49:32;;;;;;;5.87;5.57;;;15.40;99.90;;;;;;5072949;28;20193;-65
2022/05/27 00:52:09;;;;;;;5.90;5.50;;;15.40;99.90;;;;;;5072461;28;20202;-65
2022/05/27 00:54:36;;;;;;;5.37;5.07;;;15.40;99.90;;;;;;5063844;28;20214;-65
2022/05/27 00:57:07;;;;;;;6.13;5.60;;;15.40;99.90;;;;;;5052715;28;20199;-66
2022/05/27 00:59:36;;;;;;;5.87;5.53;;;15.40;99.90;;;;;;5055233;28;20197;-66
2022/05/27 01:02:02;;;;;;;5.97;5.67;;;15.50;99.90;;;;;;5072622;28;20664;-66
2022/05/27 01:04:31;;;;;;;6.50;6.10;;;15.40;99.90;;;;;;5072122;28;20410;-65
2022/05/27 01:06:56;;;;;;;6.27;5.80;;;15.40;99.90;;;;;;5072244;28;20182;-65
2022/05/27 01:09:23;;;;;;;6.60;5.70;;;15.40;99.90;;;;;;5072196;28;20208;-65
2022/05/27 01:12:10;;;;;;;6.23;5.83;;;15.40;99.90;;;;;;5071917;28;20174;-66
2022/05/27 01:14:41;;;;;;;6.00;5.70;;;15.40;99.90;;;;;;5071834;28;20174;-65
2022/05/27 01:17:22;;;;;;;6.03;5.63;;;15.30;99.90;;;;;;5072266;28;20206;-66
2022/05/27 01:20:23;;;;;;;5.30;5.00;;;15.40;99.90;;;;;;5071776;28;20220;-65
2022/05/27 01:23:37;;;;;;;6.23;5.73;;;15.40;99.90;;;;;;5055912;28;20186;-66
2022/05/27 01:26:28;;;;;;;6.70;6.10;;;15.30;99.90;;;;;;5062352;28;20248;-65
2022/05/27 01:29:14;;;;;;;5.70;5.40;;;15.20;99.90;;;;;;5072068;28;20601;-65
2022/05/27 01:31:45;;;;;;;5.87;5.57;;;15.20;99.90;;;;;;5071859;28;20261;-65
2022/05/27 01:34:32;;;;;;;5.97;5.57;;;15.10;99.90;;;;;;5071692;28;20178;-66
2022/05/27 01:37:15;;;;;;;5.77;5.27;;;15.00;99.90;;;;;;5052026;28;20840;-66
2022/05/27 01:39:46;;;;;;;5.60;5.10;;;15.00;99.90;;;;;;5053987;28;20199;-66
2022/05/27 01:42:19;;;;;;;6.77;6.20;;;15.00;99.90;;;;;;5071895;28;20189;-66
2022/05/27 01:44:54;;;;;;;6.00;5.60;;;15.00;99.90;;;;;;5071481;28;20174;-66
2022/05/27 01:47:33;;;;;;;5.87;5.43;;;15.00;99.90;;;;;;5071878;28;20174;-65
2022/05/27 01:50:09;;;;;;;6.93;6.30;;;15.00;99.90;;;;;;5071319;28;20285;-66
2022/05/27 01:52:53;;;;;;;5.70;5.30;;;15.10;99.90;;;;;;5071871;28;20182;-65
2022/05/27 01:55:40;;;;;;;6.07;5.57;;;15.10;99.90;;;;;;5071522;28;20215;-66
2022/05/27 01:58:41;;;;;;;6.27;5.77;;;15.10;99.90;;;;;;5071849;28;20530;-65
2022/05/27 02:01:14;;;;;;;6.20;5.80;;;15.10;99.90;;;;;;5071536;28;20311;-66
2022/05/27 02:04:08;;;;;;;6.03;5.63;;;15.10;99.90;;;;;;5071372;28;20174;-66
2022/05/27 02:07:03;;;;;;;5.77;5.40;;;15.10;99.90;;;;;;5051624;28;20535;-65
2022/05/27 02:09:34;;;;;;;5.93;5.53;;;15.10;99.90;;;;;;5053151;28;20217;-66
2022/05/27 02:12:06;;;;;;;6.23;5.70;;;15.10;99.90;;;;;;5069935;28;20300;-65
2022/05/27 02:14:46;;;;;;;6.03;5.50;;;15.10;99.90;;;;;;5071864;28;20818;-69
2022/05/27 02:17:15;;;;;;;5.50;5.20;;;15.10;99.90;;;;;;5073142;28;20237;-68
2022/05/27 02:19:55;;;;;;;5.63;5.27;;;15.10;99.90;;;;;;5072418;28;20251;-68
2022/05/27 02:22:28;;;;;;;5.90;5.40;;;15.10;99.90;;;;;;5071658;28;20177;-69
2022/05/27 02:25:06;;;;;;;5.87;5.40;;;15.10;99.90;;;;;;5072060;28;20175;-68
2022/05/27 02:27:46;;;;;;;5.30;5.00;;;15.10;99.90;;;;;;5072801;28;20210;-68
2022/05/27 02:30:14;;;;;;;5.50;5.20;;;15.00;99.90;;;;;;5072677;28;20241;-68
2022/05/27 02:32:47;;;;;;;5.40;5.10;;;15.10;99.90;;;;;;5071422;28;20210;-71
2022/05/27 02:35:26;;;;;;;5.60;5.30;;;15.00;99.90;;;;;;5072068;28;20209;-71
2022/05/27 02:37:55;;;;;;;5.40;5.10;;;14.90;99.90;;;;;;5072304;28;20265;-70
2022/05/27 02:40:29;;;;;;;5.47;5.17;;;14.90;99.90;;;;;;5072514;28;20267;-70
2022/05/27 02:43:09;;;;;;;5.23;4.93;;;14.70;99.90;;;;;;5072179;28;20170;-68
2022/05/27 02:45:56;;;;;;;4.80;4.60;;;14.60;99.90;;;;;;5072337;28;20549;-69
2022/05/27 02:48:41;;;;;;;5.90;5.60;;;14.50;99.90;;;;;;5072252;28;20209;-69
2022/05/27 02:51:28;;;;;;;5.60;5.20;;;14.30;99.90;;;;;;5072709;28;20167;-69
2022/05/27 02:54:14;;;;;;;6.17;5.60;;;14.30;99.90;;;;;;5071526;28;20189;-70
2022/05/27 02:56:46;;;;;;;6.90;6.47;;;14.20;99.90;;;;;;5071876;28;20572;-68
2022/05/27 02:59:17;;;;;;;6.27;5.87;;;14.20;99.90;;;;;;5072052;28;20202;-69
2022/05/27 03:01:44;;;;;;;7.13;6.73;;;14.10;99.90;;;;;;5070849;28;20208;-71
2022/05/27 03:04:09;;;;;;;6.73;6.13;;;14.00;99.90;;;;;;5071527;28;20178;-68
2022/05/27 03:06:41;;;;;;;6.30;5.90;;;13.90;99.90;;;;;;5072262;28;20640;-68
2022/05/27 03:09:18;;;;;;;6.90;6.40;;;13.90;99.90;;;;;;5072323;28;20237;-69
2022/05/27 03:11:55;;;;;;;6.60;6.07;;;13.70;99.90;;;;;;5071012;28;20702;-69
2022/05/27 03:14:50;;;;;;;5.87;5.57;;;13.70;99.90;;;;;;5071631;28;20201;-69
2022/05/27 03:17:34;;;;;;;6.37;5.97;;;13.60;99.90;;;;;;5072344;28;20213;-69
2022/05/27 03:20:28;;;;;;;6.97;6.57;;;13.60;99.90;;;;;;5051863;28;20677;-70
2022/05/27 03:23:22;;;;;;;7.43;6.73;;;13.50;99.90;;;;;;5062940;28;20190;-66
2022/05/27 03:26:06;;;;;;;7.67;6.60;;;13.40;99.90;;;;;;5074094;28;20217;-66
2022/05/27 03:28:48;;;;;;;6.33;5.77;;;13.40;99.90;;;;;;5075877;28;20621;-68
2022/05/27 03:31:17;;;;;;;6.40;6.00;;;13.30;99.90;;;;;;5076066;28;20178;-69
2022/05/27 03:34:06;;;;;;;6.70;6.00;;;13.30;99.90;;;;;;5075317;28;20625;-67
2022/05/27 03:37:03;;;;;;;6.80;6.30;;;13.40;99.90;;;;;;5070240;28;20621;-69
2022/05/27 03:39:39;;;;;;;7.03;6.53;;;13.30;99.90;;;;;;5071527;28;20700;-69
2022/05/27 03:42:08;;;;;;;6.63;6.23;;;13.30;99.90;;;;;;5075736;28;20166;-68
2022/05/27 03:44:34;;;;;;;6.83;6.43;;;13.30;99.90;;;;;;5074833;28;20197;-67
2022/05/27 03:47:01;;;;;;;6.80;6.20;;;13.20;99.90;;;;;;5075462;28;20185;-67
2022/05/27 03:49:27;;;;;;;7.20;6.80;;;13.20;99.90;;;;;;5075495;28;20217;-67
2022/05/27 03:51:58;;;;;;;6.77;6.37;;;13.20;99.90;;;;;;5075373;28;20178;-68
2022/05/27 03:54:24;;;;;;;7.10;6.60;;;13.10;99.90;;;;;;5074574;28;20186;-64
2022/05/27 03:56:50;;;;;;;7.43;6.30;;;13.10;99.90;;;;;;5073959;28;20223;-66
2022/05/27 03:59:17;;;;;;;7.30;6.60;;;13.10;99.90;;;;;;5074379;28;20206;-66
2022/05/27 04:01:46;;;;;;;7.77;7.13;;;13.20;99.90;;;;;;5074473;28;20174;-64
2022/05/27 04:04:15;;;;;;;7.33;6.73;;;13.20;99.90;;;;;;5073277;28;20171;-64
2022/05/27 04:06:41;;;;;;;7.03;6.40;;;13.20;99.90;;;;;;5073709;28;20282;-64
2022/05/27 04:09:07;;;;;;;7.03;6.53;;;13.20;99.90;;;;;;5073601;28;20748;-65
2022/05/27 04:11:34;;;;;;;6.93;6.47;;;13.30;99.90;;;;;;5073766;28;20170;-64
2022/05/27 04:13:59;;;;;;;8.03;7.03;;;13.40;99.90;;;;;;5073023;28;20178;-65
2022/05/27 04:16:25;;;;;;;7.23;6.67;;;13.40;99.90;;;;;;5073608;28;20216;-65
2022/05/27 04:18:51;;;;;;;7.40;6.90;;;13.40;99.90;;;;;;5073598;28;20209;-64
2022/05/27 04:21:17;;;;;;;8.10;7.40;;;13.40;99.90;;;;;;5073552;28;20690;-64
2022/05/27 04:23:43;;;;;;;7.60;7.10;;;13.50;99.90;;;;;;5072870;28;20178;-64
2022/05/27 04:26:09;;;;;;;7.10;6.40;;;13.50;99.90;;;;;;5073096;28;20186;-64
2022/05/27 04:28:35;;;;;;;7.73;7.03;;;13.50;99.90;;;;;;5073379;28;20201;-64
2022/05/27 04:31:02;;;;;;;7.40;6.80;;;13.60;99.90;;;;;;5073311;28;20182;-64
2022/05/27 04:33:28;;;;;;;7.33;6.73;;;13.60;99.90;;;;;;5072105;28;20520;-64
2022/05/27 04:35:55;;;;;;;7.77;7.07;;;13.50;99.90;;;;;;5072972;28;20209;-64
2022/05/27 04:38:22;;;;;;;6.63;6.10;;;13.50;99.90;;;;;;5073134;28;20198;-64
2022/05/27 04:40:48;;;;;;;7.40;6.73;;;13.40;99.90;;;;;;5072600;28;20257;-64
2022/05/27 04:43:14;;;;;;;8.60;6.83;;;13.40;99.90;;;;;;5072983;28;20189;-64
2022/05/27 04:45:40;;;;;;;7.97;7.13;;;13.40;99.90;;;;;;5072752;28;20171;-64
2022/05/27 04:48:06;;;;;;;7.60;7.10;;;13.40;99.90;;;;;;5072453;28;20593;-64
2022/05/27 04:50:32;;;;;;;9.27;7.23;;;13.30;99.90;;;;;;5072920;28;20538;-65
2022/05/27 04:52:57;;;;;;;9.40;8.50;;;13.30;99.90;;;;;;5072492;28;20186;-64
2022/05/27 04:55:23;;;;;;;8.30;7.60;;;13.30;99.90;;;;;;5059865;28;20171;-65
2022/05/27 04:57:52;;;;;;;8.20;7.53;;;13.30;99.90;;;;;;5052714;28;20225;-64
2022/05/27 05:00:26;;;;;;;9.27;8.43;;;13.30;99.90;;;;;;5052885;28;20413;-64
2022/05/27 05:02:52;;;;;;;8.53;7.93;;;13.40;99.90;;;;;;5066048;28;20272;-64
2022/05/27 05:05:20;;;;;;;8.13;7.53;;;13.40;99.90;;;;;;5072293;28;20177;-64
2022/05/27 05:07:49;;;;;;;8.60;7.57;;;13.30;99.90;;;;;;5072281;28;20220;-64
2022/05/27 05:10:18;;;;;;;8.20;7.60;;;13.30;99.90;;;;;;5072390;28;20197;-64
2022/05/27 05:12:44;;;;;;;12.93;8.47;;;13.30;99.90;;;;;;5072054;28;20174;-64
2022/05/27 05:15:11;;;;;;;8.90;8.10;;;13.30;99.90;;;;;;5072271;28;20182;-64
2022/05/27 05:17:37;;;;;;;9.67;9.00;;;13.30;99.90;;;;;;5072043;28;20206;-65
2022/05/27 05:20:05;;;;;;;8.43;7.73;;;13.30;99.90;;;;;;5072043;28;20202;-65
2022/05/27 05:22:31;;;;;;;8.13;7.43;;;13.30;99.90;;;;;;5072012;28;20583;-65
2022/05/27 05:24:57;;;;;;;8.70;7.87;;;13.30;99.90;;;;;;5071995;28;20441;-65
2022/05/27 05:27:24;;;;;;;8.47;7.77;;;13.40;99.90;;;;;;5070761;28;20300;-65
2022/05/27 05:29:52;;;;;;;8.70;7.63;;;13.50;99.90;;;;;;5071977;28;20190;-65
2022/05/27 05:32:18;;;;;;;10.30;9.30;;;13.50;99.90;;;;;;5071782;28;20186;-65
2022/05/27 05:34:43;;;;;;;9.40;8.50;;;13.40;99.90;;;;;;5071650;28;20179;-65
2022/05/27 05:37:09;;;;;;;9.17;8.47;;;13.40;99.90;;;;;;5070505;28;20209;-66
2022/05/27 05:39:36;;;;;;;9.60;8.80;;;13.50;99.90;;;;;;5063994;28;20199;-66
2022/05/27 05:42:04;;;;;;;8.97;8.07;;;13.50;99.90;;;;;;5051984;28;20179;-66
2022/05/27 05:44:30;;;;;;;8.83;8.13;;;13.50;99.90;;;;;;5052632;28;20167;-66
2022/05/27 05:46:56;;;;;;;8.20;7.60;;;13.50;99.90;;;;;;5071653;28;20718;-67
2022/05/27 05:49:23;;;;;;;9.43;8.40;;;13.50;99.90;;;;;;5071582;28;20189;-67
2022/05/27 05:51:49;;;;;;;9.27;8.47;;;13.60;99.90;;;;;;5071418;28;20184;-67
2022/05/27 05:54:15;;;;;;;9.47;8.40;;;13.70;99.90;;;;;;5071415;28;20650;-66
2022/05/27 05:56:41;;;;;;;7.87;7.27;;;13.70;99.90;;;;;;5069376;28;20217;-66
2022/05/27 05:59:06;;;;;;;6.80;6.37;;;13.80;99.90;;;;;;5071388;28;20189;-66
2022/05/27 06:01:32;;;;;;;6.80;6.40;;;13.70;99.90;;;;;;5071285;28;20177;-66
2022/05/27 06:03:57;;;;;;;6.53;6.13;;;13.60;99.90;;;;;;5070849;28;20174;-66
2022/05/27 06:06:23;;;;;;;6.07;5.73;;;13.60;99.90;;;;;;5071203;28;20182;-66
2022/05/27 06:08:49;;;;;;;6.10;5.60;;;13.60;99.90;;;;;;5071495;28;20194;-66
2022/05/27 06:11:15;;;;;;;6.20;5.77;;;13.50;99.90;;;;;;5069818;28;20235;-67
2022/05/27 06:13:41;;;;;;;6.13;5.83;;;13.50;99.90;;;;;;5069759;28;20178;-66
2022/05/27 06:16:08;;;;;;;6.00;5.50;;;13.50;99.90;;;;;;5070789;28;20206;-67
2022/05/27 06:18:35;;;;;;;5.83;5.53;;;13.50;99.90;;;;;;5071166;28;20206;-66
2022/05/27 06:21:00;;;;;;;5.80;5.50;;;13.60;99.90;;;;;;5070892;28;20178;-66
2022/05/27 06:23:29;;;;;;;5.90;5.60;;;13.50;99.90;;;;;;5071147;28;20183;-67
2022/05/27 06:26:01;;;;;;;6.33;6.00;;;13.60;99.90;;;;;;5070862;28;20293;-67
2022/05/27 06:36:42;;;;;;;7.27;6.60;;;13.60;99.90;;;;;;5070625;28;20286;-66
2022/05/27 06:39:08;;;;;;;6.40;6.10;;;13.60;99.90;;;;;;5069387;28;20186;-66
2022/05/27 06:41:34;;;;;;;6.13;5.63;;;13.50;99.90;;;;;;5070755;28;20189;-67
2022/05/27 06:44:00;;;;;;;6.63;6.17;;;13.50;99.90;;;;;;5070530;28;20166;-66
2022/05/27 06:46:26;;;;;;;7.73;6.50;;;13.60;99.90;;;;;;5070850;28;20188;-67
2022/05/27 06:48:51;;;;;;;5.93;5.63;;;13.40;99.90;;;;;;5069523;28;20198;-67
2022/05/27 06:51:19;;;;;;;6.37;5.97;;;13.40;99.90;;;;;;5071287;28;20181;-66
2022/05/27 06:53:45;;;;;;;7.33;6.80;;;13.50;99.90;;;;;;5070578;28;20179;-66
2022/05/27 06:56:11;;;;;;;6.33;6.03;;;13.50;99.90;;;;;;5071381;28;20563;-66
2022/05/27 06:58:38;;;;;;;6.53;6.10;;;13.60;99.90;;;;;;5074736;28;20182;-66
2022/05/27 07:01:04;;;;;;;7.60;6.97;;;13.50;99.90;;;;;;5073748;28;20467;-66
2022/05/27 07:03:30;;;;;;;6.83;6.53;;;13.50;99.90;;;;;;5054631;28;20178;-67
2022/05/27 07:05:56;;;;;;;6.53;6.13;;;13.60;99.90;;;;;;5058494;28;20851;-66
2022/05/27 07:08:21;;;;;;;6.63;6.27;;;13.40;99.90;;;;;;5074707;28;20243;-66
2022/05/27 07:10:47;;;;;;;6.43;6.13;;;13.40;99.90;;;;;;5073086;28;20233;-66
2022/05/27 07:13:13;;;;;;;6.60;6.20;;;13.40;99.90;;;;;;5074675;28;20257;-67
2022/05/27 07:15:40;;;;;;;6.43;6.07;;;13.30;99.90;;;;;;5073995;28;20170;-67
2022/05/27 07:18:08;;;;;;;6.30;5.93;;;13.30;99.90;;;;;;5074136;28;20178;-66
2022/05/27 07:20:36;;;;;;;6.77;6.30;;;13.30;99.90;;;;;;5074570;28;20548;-66
2022/05/27 07:23:03;;;;;;;7.13;6.70;;;13.40;99.90;;;;;;5074285;28;20177;-67
2022/05/27 07:25:31;;;;;;;6.67;6.27;;;13.50;99.90;;;;;;5074253;28;20162;-66
2022/05/27 07:27:57;;;;;;;6.43;6.03;;;13.60;99.90;;;;;;5073896;28;20276;-67
2022/05/27 07:30:23;;;;;;;6.83;6.40;;;13.90;99.90;;;;;;5074357;28;20245;-66
2022/05/27 07:32:48;;;;;;;6.63;6.13;;;14.20;99.90;;;;;;5072636;28;20181;-66
2022/05/27 07:35:14;;;;;;;5.80;5.43;;;14.30;99.90;;;;;;5074037;28;20178;-67
2022/05/27 07:37:39;;;;;;;6.67;6.17;;;14.40;99.90;;;;;;5073732;28;20288;-66
2022/05/27 07:40:06;;;;;;;7.00;6.40;;;14.60;99.90;;;;;;5072640;28;20268;-67
2022/05/27 07:42:32;;;;;;;6.10;5.70;;;14.80;99.90;;;;;;5073885;28;20178;-67
2022/05/27 07:44:57;;;;;;;7.27;6.63;;;14.80;99.90;;;;;;5073248;28;20182;-67
2022/05/27 07:47:24;;;;;;;7.50;6.17;;;15.00;99.90;;;;;;5072632;28;20645;-67
2022/05/27 07:49:49;;;;;;;6.90;6.40;;;15.20;99.90;;;;;;5073741;28;20213;-67
2022/05/27 07:52:15;;;;;;;6.00;5.70;;;15.20;99.90;;;;;;5072466;28;20719;-67
2022/05/27 07:54:41;;;;;;;6.60;6.00;;;15.40;99.90;;;;;;5072232;28;20174;-67
2022/05/27 07:57:23;;;;;;;6.00;5.50;;;15.60;99.90;;;;;;5072270;28;20205;-66
2022/05/27 07:59:59;;;;;;;6.30;5.90;;;16.00;99.90;;;;;;5072387;28;20668;-66
2022/05/27 08:02:25;;;;;;;5.70;5.40;;;16.20;99.90;;;;;;5072188;28;20264;-66
2022/05/27 08:04:52;;;;;;;6.20;5.80;;;16.20;99.90;;;;;;5073302;28;20669;-66
2022/05/27 08:07:18;;;;;;;5.40;5.10;;;16.60;99.90;;;;;;5072688;28;20185;-67
2022/05/27 08:09:44;;;;;;;5.47;5.17;;;17.10;99.90;;;;;;5072915;28;20270;-67
2022/05/27 08:12:10;;;;;;;5.77;5.47;;;17.30;99.90;;;;;;5071793;28;20272;-67
2022/05/27 08:14:36;;;;;;;4.90;4.70;;;17.60;99.90;;;;;;5073287;28;20174;-66
2022/05/27 08:17:03;;;;;;;4.53;4.33;;;18.00;99.90;;;;;;5073235;28;20202;-66
2022/05/27 08:19:29;;;;;;;5.37;5.00;;;18.10;99.90;;;;;;5071957;28;20214;-66
2022/05/27 08:21:54;;;;;;;4.60;4.30;;;18.10;99.90;;;;;;5071523;28;20228;-67
2022/05/27 08:24:20;;;;;;;4.67;4.37;;;18.40;99.90;;;;;;5071504;28;20178;-66
2022/05/27 08:26:47;;;;;;;5.30;4.90;;;18.30;99.90;;;;;;5071639;28;20178;-66
2022/05/27 08:29:13;;;;;;;5.43;5.13;;;18.30;99.90;;;;;;5071682;28;20198;-66
2022/05/27 08:31:39;;;;;;;5.53;5.10;;;18.10;99.90;;;;;;5072823;28;20174;-67
2022/05/27 08:39:37;;;;;;;5.47;5.00;;;19.10;99.90;;;;;;5070943;28;20613;-66
2022/05/27 08:42:12;;;;;;;5.33;4.93;;;19.50;99.90;;;;;;5072870;28;20204;-67
2022/05/27 08:44:56;;;;;;;4.80;4.38;;;20.20;99.90;;;;;;5072568;28;20582;-66
2022/05/27 08:47:35;;;;;;;6.23;5.93;;;20.80;99.90;;;;;;5053846;28;20174;-66
2022/05/27 08:50:09;;;;;;;5.90;5.43;;;20.60;99.90;;;;;;5072492;28;20555;-66
2022/05/27 08:52:43;;;;;;;5.70;5.30;;;20.30;99.90;;;;;;5072752;28;20182;-66
2022/05/27 09:01:20;;;;;;;6.17;5.67;;;19.80;99.90;;;;;;5072842;28;20553;-66
2022/05/27 09:03:51;;;;;;;5.55;5.15;;;20.30;99.90;;;;;;5071992;28;20174;-66
2022/05/27 09:06:25;;;;;;;5.07;4.68;;;21.30;99.90;;;;;;5072584;28;20231;-66
2022/05/27 09:08:51;;;;;;;4.47;4.07;;;21.90;99.90;;;;;;5072267;28;20213;-66
2022/05/27 09:11:26;;;;;;;5.38;4.63;;;21.70;99.90;;;;;;5072721;28;20562;-66
2022/05/27 09:14:10;;;;;;;4.97;4.57;;;21.50;99.90;;;;;;5062607;28;20189;-66
2022/05/27 09:16:59;;;;;;;5.68;4.95;;;21.60;99.90;;;;;;5072442;28;20575;-66
2022/05/27 09:19:30;;;;;;;4.68;4.28;;;21.70;99.90;;;;;;5067547;28;20214;-67
2022/05/27 09:22:14;;;;;;;4.53;4.13;;;22.10;99.90;;;;;;5072284;28;20206;-66
2022/05/27 09:24:48;;;;;;;3.90;3.60;;;22.00;99.90;;;;;;5072010;28;20170;-66
2022/05/27 09:27:31;;;;;;;4.18;3.97;;;21.70;99.90;;;;;;5072115;28;20178;-66
2022/05/27 09:30:06;;;;;;;4.70;4.30;;;21.20;99.90;;;;;;5072138;28;20202;-66
2022/05/27 09:32:38;;;;;;;4.87;4.10;;;20.90;99.90;;;;;;5071206;28;20174;-65
2022/05/27 09:35:09;;;;;;;4.40;4.10;;;20.70;99.90;;;;;;5072011;28;20174;-66
2022/05/27 09:37:42;;;;;;;5.53;5.13;;;20.40;99.90;;;;;;5071922;28;20201;-65
2022/05/27 09:40:14;;;;;;;5.00;4.50;;;20.20;99.90;;;;;;5072023;28;20193;-66
2022/05/27 09:43:07;;;;;;;5.20;4.80;;;19.70;99.90;;;;;;5071707;28;20174;-65
2022/05/27 09:45:34;;;;;;;5.93;5.53;;;19.30;99.90;;;;;;5058524;28;20598;-65
2022/05/27 09:48:01;;;;;;;5.30;4.90;;;19.20;99.90;;;;;;5057762;28;20629;-66
2022/05/27 09:50:39;;;;;;;5.57;5.17;;;19.80;99.90;;;;;;5071828;28;20594;-66
2022/05/27 09:53:06;;;;;;;4.83;4.60;;;20.00;99.90;;;;;;5071567;28;20173;-66
2022/05/27 09:56:00;;;;;;;5.77;4.50;;;20.20;99.90;;;;;;5071460;28;20539;-66
2022/05/27 09:58:29;;;;;;;5.27;4.53;;;20.40;99.90;;;;;;5071359;28;20260;-65
2022/05/27 10:00:55;;;;;;;6.90;4.10;;;20.90;99.90;;;;;;5071713;28;20184;-65
2022/05/27 10:03:32;;;;;;;4.43;4.20;;;21.30;99.90;;;;;;5071310;28;20264;-66
2022/05/27 10:06:09;;;;;;;5.13;4.80;;;20.60;99.90;;;;;;5071619;28;20162;-65
2022/05/27 10:08:49;;;;;;;4.60;4.30;;;20.00;99.90;;;;;;5071345;28;20719;-66
2022/05/27 10:11:28;;;;;;;4.63;4.43;;;20.10;99.90;;;;;;5071631;28;20202;-65
2022/05/27 10:14:17;;;;;;;4.90;4.60;;;20.10;99.90;;;;;;5071005;28;20629;-65
2022/05/27 10:16:58;;;;;;;5.67;4.23;;;20.70;99.90;;;;;;5064682;28;20213;-65
2022/05/27 10:19:25;;;;;;;4.30;4.00;;;21.30;99.90;;;;;;5069597;28;20209;-66
2022/05/27 10:22:03;;;;;;;4.77;4.37;;;21.70;99.90;;;;;;5071351;28;20174;-66
2022/05/27 10:24:41;;;;;;;3.90;3.70;;;21.40;99.90;;;;;;5070781;28;20174;-66
2022/05/27 10:27:21;;;;;;;4.70;4.30;;;21.30;99.90;;;;;;5070262;28;20170;-66
2022/05/27 10:30:06;;;;;;;5.93;4.43;;;20.80;99.90;;;;;;5071114;28;20202;-67
2022/05/27 10:32:36;;;;;;;4.13;3.90;;;20.80;99.90;;;;;;5070736;28;20198;-66
2022/05/27 10:35:08;;;;;;;3.97;3.77;;;20.90;99.90;;;;;;5070822;28;20212;-65
2022/05/27 10:37:57;;;;;;;3.95;3.65;;;21.70;99.90;;;;;;5071267;28;20206;-66
2022/05/27 10:40:29;;;;;;;3.97;3.55;;;22.10;99.90;;;;;;5049796;28;20199;-66
2022/05/27 10:43:19;;;;;;;3.78;3.58;;;22.40;99.90;;;;;;5051974;28;20889;-65
2022/05/27 10:45:47;;;;;;;3.67;3.47;;;22.70;99.90;;;;;;5065637;28;20689;-66
2022/05/27 10:48:51;;;;;;;4.07;3.80;;;22.30;99.90;;;;;;5051080;28;20171;-66
2022/05/27 10:51:23;;;;;;;4.00;3.80;;;21.90;99.90;;;;;;5063031;28;20216;-66
2022/05/27 10:54:17;;;;;;;4.13;3.83;;;21.80;99.90;;;;;;5062904;28;20707;-66
2022/05/27 11:03:13;;;;;;;4.13;3.90;;;21.00;99.90;;;;;;5064533;28;20193;-66
2022/05/27 11:05:39;;;;;;;5.20;4.30;;;20.20;99.90;;;;;;5069481;28;20539;-66
2022/05/27 11:08:28;;;;;;;4.70;4.40;;;20.10;99.90;;;;;;5070956;28;20182;-65
2022/05/27 11:11:13;;;;;;;5.07;4.67;;;20.30;99.90;;;;;;5070409;28;20174;-65
2022/05/27 11:17:18;;;;;;;4.77;4.37;;;20.10;99.90;;;;;;5070874;28;20252;-66
2022/05/27 11:19:58;;;;;;;6.33;4.07;;;20.30;99.90;;;;;;5069888;28;20213;-66
2022/05/27 11:23:00;;;;;;;4.80;4.20;;;20.40;99.90;;;;;;5070837;28;20672;-66
2022/05/27 11:25:44;;;;;;;6.80;4.07;;;20.30;99.90;;;;;;5070764;28;20537;-67
2022/05/27 11:28:50;;;;;;;4.23;3.90;;;20.90;99.90;;;;;;5070844;28;20588;-66
2022/05/27 11:31:27;;;;;;;6.22;3.88;;;20.90;99.90;;;;;;5070246;28;20266;-65
2022/05/27 11:34:30;;;;;;;4.93;3.70;;;21.70;99.90;;;;;;5069166;28;20177;-66
2022/05/27 11:37:17;;;;;;;3.53;3.30;;;22.60;99.90;;;;;;5070683;28;20420;-66
2022/05/27 11:40:14;;;;;;;3.78;3.35;;;23.10;99.90;;;;;;5070705;28;20198;-66
2022/05/27 11:43:07;;;;;;;4.43;3.20;;;23.80;99.90;;;;;;5072182;28;20173;-65
2022/05/27 11:45:34;;;;;;;3.67;3.38;;;24.60;99.90;;;;;;5074038;28;20170;-66
2022/05/27 11:48:06;;;;;;;4.10;3.55;;;25.00;99.90;;;;;;5074186;28;20243;-65
2022/05/27 11:50:59;;;;;;;4.55;4.25;;;24.30;99.90;;;;;;5074121;28;20579;-66
2022/05/27 11:53:40;;;;;;;7.35;3.95;;;24.30;99.90;;;;;;5073959;28;20178;-65
2022/05/27 11:56:26;;;;;;;4.00;3.40;;;24.10;99.90;;;;;;5073872;28;20240;-66
2022/05/27 11:59:00;;;;;;;4.88;3.75;;;24.30;99.90;;;;;;5073828;28;20204;-66
2022/05/27 12:01:35;;;;;;;3.47;3.17;;;24.20;99.90;;;;;;5073993;28;20216;-66
2022/05/27 12:04:13;;;;;;;3.35;3.10;;;24.20;99.90;;;;;;5072817;28;20629;-65
2022/05/27 12:07:03;;;;;;;3.80;3.50;;;24.00;99.90;;;;;;5060393;28;20186;-65
2022/05/27 12:09:45;;;;;;;3.63;3.40;;;24.20;99.90;;;;;;5064692;28;20615;-67
2022/05/27 12:12:18;;;;;;;5.32;3.72;;;23.80;99.90;;;;;;5053602;28;20174;-66
2022/05/27 12:14:54;;;;;;;4.70;3.65;;;23.60;99.90;;;;;;5069434;28;20535;-66
2022/05/27 12:17:22;;;;;;;3.42;3.22;;;23.50;99.90;;;;;;5072432;28;20232;-66
2022/05/27 12:20:01;;;;;;;3.80;3.53;;;23.30;99.90;;;;;;5071847;28;20680;-66
2022/05/27 12:22:32;;;;;;;3.70;3.40;;;22.80;99.90;;;;;;5073354;28;20239;-66
2022/05/27 12:25:09;;;;;;;3.65;3.30;;;22.80;99.90;;;;;;5072904;28;20178;-67
2022/05/27 12:27:35;;;;;;;3.50;3.30;;;22.90;99.90;;;;;;5073428;28;20177;-66
2022/05/27 12:30:05;;;;;;;3.63;3.33;;;23.00;99.90;;;;;;5072973;28;20304;-66
2022/05/27 12:32:30;;;;;;;5.03;3.67;;;23.50;99.90;;;;;;5073004;28;20608;-66
2022/05/27 12:35:23;;;;;;;5.40;3.70;;;23.30;99.90;;;;;;5072414;28;20277;-67
2022/05/27 12:38:05;;;;;;;3.78;3.53;;;23.20;99.90;;;;;;5072119;28;20194;-66
2022/05/27 12:40:38;;;;;;;4.20;3.80;;;22.70;99.90;;;;;;5073205;28;20261;-66
2022/05/27 12:43:22;;;;;;;3.72;3.22;;;22.60;99.90;;;;;;5072697;28;20657;-66
2022/05/27 12:45:53;;;;;;;3.42;3.17;;;22.20;99.90;;;;;;5072889;28;20251;-66
2022/05/27 12:48:38;;;;;;;5.72;3.95;;;22.60;99.90;;;;;;5072592;28;20173;-65
2022/05/27 12:51:35;;;;;;;3.80;3.50;;;22.50;99.90;;;;;;5073201;28;20178;-66
2022/05/27 12:54:01;;;;;;;3.55;3.30;;;22.90;99.90;;;;;;5071425;28;20543;-67
2022/05/27 13:02:23;;;;;;;5.40;3.83;;;22.10;99.90;;;;;;5072583;28;20181;-66
2022/05/27 13:04:52;;;;;;;3.90;3.60;;;21.30;99.90;;;;;;5071761;28;20544;-66
2022/05/27 13:07:38;;;;;;;3.97;3.60;;;20.80;99.90;;;;;;5072591;28;20696;-66
2022/05/27 13:10:16;;;;;;;4.17;3.60;;;21.30;99.90;;;;;;5072435;28;20201;-66
2022/05/27 13:12:42;;;;;;;3.87;3.57;;;22.00;99.90;;;;;;5072098;28;20173;-66
2022/05/27 13:15:43;;;;;;;3.95;3.53;;;22.20;99.90;;;;;;5072223;28;20204;-67
2022/05/27 13:18:12;;;;;;;3.78;3.47;;;22.20;99.90;;;;;;5069917;28;20239;-66
2022/05/27 13:21:03;;;;;;;4.60;3.45;;;22.20;99.90;;;;;;5072258;28;20174;-67
2022/05/27 13:23:31;;;;;;;7.07;3.58;;;22.40;99.90;;;;;;5071200;28;20668;-65
2022/05/27 13:26:20;;;;;;;4.53;3.50;;;22.60;99.90;;;;;;5071491;28;20239;-67
2022/05/27 13:28:55;;;;;;;4.15;3.55;;;22.70;99.90;;;;;;5070058;28;20202;-67
2022/05/27 13:31:27;;;;;;;5.78;3.60;;;22.50;99.90;;;;;;5072160;28;20173;-67
2022/05/27 13:34:02;;;;;;;3.80;3.50;;;22.80;99.90;;;;;;5071393;28;20205;-66
2022/05/27 13:36:33;;;;;;;4.10;3.70;;;22.60;99.90;;;;;;5071708;28;20240;-66
2022/05/27 13:39:06;;;;;;;4.20;3.80;;;21.90;99.90;;;;;;5071662;28;20201;-65
2022/05/27 13:41:40;;;;;;;3.80;3.50;;;22.20;99.90;;;;;;5071965;28;20209;-66
2022/05/27 13:44:08;;;;;;;3.70;3.40;;;22.40;99.90;;;;;;5071516;28;20176;-68
2022/05/27 13:46:40;;;;;;;4.13;3.75;;;22.40;99.90;;;;;;5053896;28;20273;-66
2022/05/27 13:49:33;;;;;;;3.50;3.30;;;22.50;99.90;;;;;;5071586;28;20186;-67
2022/05/27 13:52:01;;;;;;;5.47;3.53;;;22.80;99.90;;;;;;5071868;28;21009;-66
2022/05/27 13:54:38;;;;;;;4.07;3.78;;;22.60;99.90;;;;;;5071048;28;20174;-66